Ingalls, Indiana
Current Conditions -  °F | °C
As of 2:15 PM on Thursday 18 Dec 2014 (Local Time) from KMQJ Reporting Station
Broken Clouds Broken Clouds  
Wind Chill: 27°   Ceiling: 400
Heat Index: 27°   Visibility: 5mi
Dew Point: 21°   Wind: 0mph
Humidity: 80%   Direction: NA
Pressure: 30.22"   Gusts: NA
Location:  39.96°N, 85.81°W
Report Text: KMQJ 181915Z AUTO 00000KT 5SM BKN004 BKN010 M03/M06 A3022 RMK AO1
Loading
Personal Weather Stations






























Interactive Weather Map New forecast layout! Learn more

10-Day Weather Forecast

Advertisements
Track Severe Weather on mobile